sensor_id;sensor_type;location;lat;lon;timestamp;pressure;altitude;pressure_sealevel;temperature;humidity
64211;BME280;50528;48.514;14.394;2023-07-22T00:00:00;93688.44;;;16.17;72.24
64211;BME280;50528;48.514;14.394;2023-07-22T00:00:36;93689.10;;;16.15;72.21
64211;BME280;50528;48.514;14.394;2023-07-22T00:01:30;93691.98;;;16.14;72.24
64211;BME280;50528;48.514;14.394;2023-07-22T00:02:04;93693.39;;;16.16;72.10
64211;BME280;50528;48.514;14.394;2023-07-22T00:02:38;93691.05;;;16.13;72.13
64211;BME280;50528;48.514;14.394;2023-07-22T00:03:11;93689.02;;;16.13;72.05
64211;BME280;50528;48.514;14.394;2023-07-22T00:03:45;93683.67;;;16.16;72.13
64211;BME280;50528;48.514;14.394;2023-07-22T00:04:21;93687.81;;;16.16;71.99
64211;BME280;50528;48.514;14.394;2023-07-22T00:04:54;93683.48;;;16.16;71.96
64211;BME280;50528;48.514;14.394;2023-07-22T00:05:28;93680.60;;;16.17;71.84
64211;BME280;50528;48.514;14.394;2023-07-22T00:06:11;93676.35;;;16.17;71.88
64211;BME280;50528;48.514;14.394;2023-07-22T00:06:44;93681.13;;;16.16;71.83
64211;BME280;50528;48.514;14.394;2023-07-22T00:07:18;93678.71;;;16.15;71.67
64211;BME280;50528;48.514;14.394;2023-07-22T00:07:52;93676.88;;;16.17;71.58
64211;BME280;50528;48.514;14.394;2023-07-22T00:08:25;93678.17;;;16.16;71.52
64211;BME280;50528;48.514;14.394;2023-07-22T00:08:59;93677.73;;;16.16;71.47
64211;BME280;50528;48.514;14.394;2023-07-22T00:09:33;93676.05;;;16.15;71.40
64211;BME280;50528;48.514;14.394;2023-07-22T00:10:10;93679.00;;;16.17;71.40
64211;BME280;50528;48.514;14.394;2023-07-22T00:10:44;93682.77;;;16.15;71.41
64211;BME280;50528;48.514;14.394;2023-07-22T00:11:17;93687.23;;;16.15;71.46
64211;BME280;50528;48.514;14.394;2023-07-22T00:11:50;93686.70;;;16.16;71.30
64211;BME280;50528;48.514;14.394;2023-07-22T00:12:24;93691.73;;;16.16;71.26
64211;BME280;50528;48.514;14.394;2023-07-22T00:12:58;93688.13;;;16.17;71.24
64211;BME280;50528;48.514;14.394;2023-07-22T00:13:33;93686.45;;;16.14;70.95
64211;BME280;50528;48.514;14.394;2023-07-22T00:14:09;93688.59;;;16.13;71.03
64211;BME280;50528;48.514;14.394;2023-07-22T00:14:46;93691.95;;;16.17;70.97
64211;BME280;50528;48.514;14.394;2023-07-22T00:15:19;93693.11;;;16.13;70.93
64211;BME280;50528;48.514;14.394;2023-07-22T00:15:53;93695.78;;;16.11;70.90
64211;BME280;50528;48.514;14.394;2023-07-22T00:16:29;93696.47;;;16.11;70.67
64211;BME280;50528;48.514;14.394;2023-07-22T00:17:03;93695.46;;;16.08;70.68
64211;BME280;50528;48.514;14.394;2023-07-22T00:17:36;93693.35;;;16.07;70.75
64211;BME280;50528;48.514;14.394;2023-07-22T00:18:09;93699.56;;;16.06;70.74
64211;BME280;50528;48.514;14.394;2023-07-22T00:18:43;93703.38;;;16.07;70.72
64211;BME280;50528;48.514;14.394;2023-07-22T00:19:16;93702.69;;;16.06;70.71
64211;BME280;50528;48.514;14.394;2023-07-22T00:19:53;93708.42;;;16.04;70.69
64211;BME280;50528;48.514;14.394;2023-07-22T00:20:27;93709.71;;;16.03;70.72
64211;BME280;50528;48.514;14.394;2023-07-22T00:21:02;93711.13;;;16.04;70.57
64211;BME280;50528;48.514;14.394;2023-07-22T00:21:35;93711.23;;;16.07;70.38
64211;BME280;50528;48.514;14.394;2023-07-22T00:22:09;93714.51;;;16.07;70.30
64211;BME280;50528;48.514;14.394;2023-07-22T00:22:43;93716.45;;;16.03;70.52
64211;BME280;50528;48.514;14.394;2023-07-22T00:23:16;93718.50;;;15.99;70.58
64211;BME280;50528;48.514;14.394;2023-07-22T00:23:50;93721.74;;;15.99;70.63
64211;BME280;50528;48.514;14.394;2023-07-22T00:24:24;93720.90;;;15.99;70.56
64211;BME280;50528;48.514;14.394;2023-07-22T00:24:58;93724.20;;;15.98;70.52
64211;BME280;50528;48.514;14.394;2023-07-22T00:25:34;93724.80;;;15.96;70.52
64211;BME280;50528;48.514;14.394;2023-07-22T00:26:08;93728.14;;;15.96;70.55
64211;BME280;50528;48.514;14.394;2023-07-22T00:26:42;93730.51;;;15.96;70.59
64211;BME280;50528;48.514;14.394;2023-07-22T00:27:16;93727.25;;;15.95;70.56
64211;BME280;50528;48.514;14.394;2023-07-22T00:27:49;93729.33;;;15.98;70.54
64211;BME280;50528;48.514;14.394;2023-07-22T00:28:23;93730.54;;;15.99;70.42
64211;BME280;50528;48.514;14.394;2023-07-22T00:28:56;93731.97;;;16.00;70.30
64211;BME280;50528;48.514;14.394;2023-07-22T00:29:30;93734.25;;;15.99;70.34
64211;BME280;50528;48.514;14.394;2023-07-22T00:30:05;93738.36;;;15.97;70.23
64211;BME280;50528;48.514;14.394;2023-07-22T00:30:39;93735.77;;;15.97;70.09
64211;BME280;50528;48.514;14.394;2023-07-22T00:31:12;93736.31;;;15.95;70.09
64211;BME280;50528;48.514;14.394;2023-07-22T00:31:46;93734.63;;;15.94;70.20
64211;BME280;50528;48.514;14.394;2023-07-22T00:32:19;93737.02;;;15.93;70.06
64211;BME280;50528;48.514;14.394;2023-07-22T00:32:53;93734.00;;;15.93;70.30
64211;BME280;50528;48.514;14.394;2023-07-22T00:33:26;93736.11;;;15.94;70.16
64211;BME280;50528;48.514;14.394;2023-07-22T00:34:00;93740.52;;;15.95;70.28
64211;BME280;50528;48.514;14.394;2023-07-22T00:34:34;93738.17;;;15.95;70.32
64211;BME280;50528;48.514;14.394;2023-07-22T00:35:08;93739.30;;;15.94;70.02
64211;BME280;50528;48.514;14.394;2023-07-22T00:35:47;93737.06;;;15.90;70.17
64211;BME280;50528;48.514;14.394;2023-07-22T00:36:23;93734.65;;;15.87;70.33
64211;BME280;50528;48.514;14.394;2023-07-22T00:36:57;93734.96;;;15.88;70.24
64211;BME280;50528;48.514;14.394;2023-07-22T00:37:31;93731.84;;;15.87;70.28
64211;BME280;50528;48.514;14.394;2023-07-22T00:38:05;93733.48;;;15.86;70.32
64211;BME280;50528;48.514;14.394;2023-07-22T00:38:39;93734.02;;;15.87;70.38
64211;BME280;50528;48.514;14.394;2023-07-22T00:39:13;93732.48;;;15.87;70.47
64211;BME280;50528;48.514;14.394;2023-07-22T00:39:49;93733.91;;;15.86;70.42
64211;BME280;50528;48.514;14.394;2023-07-22T00:40:22;93737.94;;;15.86;70.64
64211;BME280;50528;48.514;14.394;2023-07-22T00:40:56;93735.87;;;15.84;70.51
64211;BME280;50528;48.514;14.394;2023-07-22T00:41:29;93735.70;;;15.84;70.76
64211;BME280;50528;48.514;14.394;2023-07-22T00:42:03;93740.27;;;15.86;70.76
64211;BME280;50528;48.514;14.394;2023-07-22T00:42:36;93742.58;;;15.85;70.71
64211;BME280;50528;48.514;14.394;2023-07-22T00:43:09;93738.53;;;15.85;70.90
64211;BME280;50528;48.514;14.394;2023-07-22T00:43:43;93741.23;;;15.86;70.80
64211;BME280;50528;48.514;14.394;2023-07-22T00:44:16;93738.52;;;15.88;70.79
64211;BME280;50528;48.514;14.394;2023-07-22T00:44:50;93742.70;;;15.89;70.79
64211;BME280;50528;48.514;14.394;2023-07-22T00:45:23;93739.56;;;15.89;71.07
64211;BME280;50528;48.514;14.394;2023-07-22T00:45:56;93744.41;;;15.86;71.11
64211;BME280;50528;48.514;14.394;2023-07-22T00:46:30;93745.75;;;15.85;71.05
64211;BME280;50528;48.514;14.394;2023-07-22T00:47:04;93744.40;;;15.84;71.04
64211;BME280;50528;48.514;14.394;2023-07-22T00:47:38;93744.08;;;15.83;71.07
64211;BME280;50528;48.514;14.394;2023-07-22T00:48:12;93744.83;;;15.83;71.05
64211;BME280;50528;48.514;14.394;2023-07-22T00:48:47;93745.73;;;15.83;71.12
64211;BME280;50528;48.514;14.394;2023-07-22T00:49:21;93742.39;;;15.84;71.18
64211;BME280;50528;48.514;14.394;2023-07-22T00:49:55;93743.45;;;15.84;71.06
64211;BME280;50528;48.514;14.394;2023-07-22T00:50:29;93744.48;;;15.85;71.19
64211;BME280;50528;48.514;14.394;2023-07-22T00:51:04;93744.67;;;15.86;71.07
64211;BME280;50528;48.514;14.394;2023-07-22T00:51:37;93745.94;;;15.88;70.96
64211;BME280;50528;48.514;14.394;2023-07-22T00:52:11;93747.17;;;15.85;70.99
64211;BME280;50528;48.514;14.394;2023-07-22T00:52:44;93749.79;;;15.84;71.01
64211;BME280;50528;48.514;14.394;2023-07-22T00:53:18;93745.32;;;15.85;71.11
64211;BME280;50528;48.514;14.394;2023-07-22T00:53:51;93744.36;;;15.86;71.01
64211;BME280;50528;48.514;14.394;2023-07-22T00:54:25;93746.32;;;15.85;70.99
64211;BME280;50528;48.514;14.394;2023-07-22T00:54:58;93745.46;;;15.86;70.93
64211;BME280;50528;48.514;14.394;2023-07-22T00:55:34;93749.18;;;15.85;70.77
64211;BME280;50528;48.514;14.394;2023-07-22T00:56:08;93749.28;;;15.87;71.03
64211;BME280;50528;48.514;14.394;2023-07-22T00:56:43;93749.96;;;15.89;70.94
64211;BME280;50528;48.514;14.394;2023-07-22T00:57:17;93749.90;;;15.89;70.94
64211;BME280;50528;48.514;14.394;2023-07-22T00:57:51;93748.80;;;15.86;71.23
64211;BME280;50528;48.514;14.394;2023-07-22T00:58:25;93749.02;;;15.86;71.12
64211;BME280;50528;48.514;14.394;2023-07-22T00:58:59;93749.08;;;15.86;71.25
64211;BME280;50528;48.514;14.394;2023-07-22T00:59:33;93739.13;;;15.78;71.23
64211;BME280;50528;48.514;14.394;2023-07-22T01:00:07;93745.20;;;15.86;71.25
64211;BME280;50528;48.514;14.394;2023-07-22T01:00:45;93749.70;;;15.86;71.75
64211;BME280;50528;48.514;14.394;2023-07-22T01:01:18;93746.36;;;15.88;71.35
64211;BME280;50528;48.514;14.394;2023-07-22T01:01:51;93729.28;;;15.78;71.30
64211;BME280;50528;48.514;14.394;2023-07-22T01:02:25;93742.68;;;15.90;71.44
64211;BME280;50528;48.514;14.394;2023-07-22T01:02:59;93745.20;;;15.88;71.44
64211;BME280;50528;48.514;14.394;2023-07-22T01:03:33;93743.45;;;15.88;71.32
64211;BME280;50528;48.514;14.394;2023-07-22T01:04:06;93741.27;;;15.87;71.38
64211;BME280;50528;48.514;14.394;2023-07-22T01:04:40;93740.36;;;15.88;71.46
64211;BME280;50528;48.514;14.394;2023-07-22T01:05:13;93738.77;;;15.89;71.44
64211;BME280;50528;48.514;14.394;2023-07-22T01:05:47;93736.26;;;15.90;71.53
64211;BME280;50528;48.514;14.394;2023-07-22T01:06:23;93736.58;;;15.90;71.34
64211;BME280;50528;48.514;14.394;2023-07-22T01:06:58;93735.02;;;15.88;71.41
64211;BME280;50528;48.514;14.394;2023-07-22T01:07:32;93735.44;;;15.89;71.42
64211;BME280;50528;48.514;14.394;2023-07-22T01:08:05;93736.91;;;15.89;71.59
64211;BME280;50528;48.514;14.394;2023-07-22T01:08:39;93738.83;;;15.89;71.64
64211;BME280;50528;48.514;14.394;2023-07-22T01:09:13;93733.89;;;15.89;71.63
64211;BME280;50528;48.514;14.394;2023-07-22T01:09:46;93737.36;;;15.91;71.73
64211;BME280;50528;48.514;14.394;2023-07-22T01:10:21;93737.40;;;15.93;71.64
64211;BME280;50528;48.514;14.394;2023-07-22T01:10:54;93736.20;;;15.90;71.76
64211;BME280;50528;48.514;14.394;2023-07-22T01:11:28;93740.67;;;15.89;71.81
64211;BME280;50528;48.514;14.394;2023-07-22T01:12:02;93742.48;;;15.91;71.70
64211;BME280;50528;48.514;14.394;2023-07-22T01:12:36;93744.36;;;15.90;71.79
64211;BME280;50528;48.514;14.394;2023-07-22T01:13:09;93744.10;;;15.90;71.82
64211;BME280;50528;48.514;14.394;2023-07-22T01:13:42;93745.05;;;15.86;71.90
64211;BME280;50528;48.514;14.394;2023-07-22T01:14:16;93750.75;;;15.89;71.79
64211;BME280;50528;48.514;14.394;2023-07-22T01:14:50;93754.36;;;15.90;71.91
64211;BME280;50528;48.514;14.394;2023-07-22T01:15:24;93751.40;;;15.93;72.02
64211;BME280;50528;48.514;14.394;2023-07-22T01:15:58;93754.67;;;15.95;71.89
64211;BME280;50528;48.514;14.394;2023-07-22T01:16:32;93755.26;;;15.93;71.97
64211;BME280;50528;48.514;14.394;2023-07-22T01:17:07;93750.74;;;15.89;71.95
64211;BME280;50528;48.514;14.394;2023-07-22T01:17:41;93754.15;;;15.94;71.99
64211;BME280;50528;48.514;14.394;2023-07-22T01:18:15;93755.73;;;15.94;71.92
64211;BME280;50528;48.514;14.394;2023-07-22T01:18:48;93757.34;;;15.96;72.03
64211;BME280;50528;48.514;14.394;2023-07-22T01:19:22;93758.73;;;15.96;72.00
64211;BME280;50528;48.514;14.394;2023-07-22T01:19:56;93759.91;;;15.95;72.02
64211;BME280;50528;48.514;14.394;2023-07-22T01:20:30;93756.20;;;15.95;72.10
64211;BME280;50528;48.514;14.394;2023-07-22T01:21:06;93746.19;;;15.88;72.04
64211;BME280;50528;48.514;14.394;2023-07-22T01:21:41;93759.89;;;15.96;72.05
64211;BME280;50528;48.514;14.394;2023-07-22T01:22:16;93765.48;;;15.98;72.13
64211;BME280;50528;48.514;14.394;2023-07-22T01:22:53;93762.30;;;16.00;72.05
64211;BME280;50528;48.514;14.394;2023-07-22T01:23:27;93763.83;;;16.01;71.96
64211;BME280;50528;48.514;14.394;2023-07-22T01:24:02;93760.31;;;16.01;72.11
64211;BME280;50528;48.514;14.394;2023-07-22T01:24:38;93765.48;;;16.04;72.05
64211;BME280;50528;48.514;14.394;2023-07-22T01:25:12;93763.31;;;16.04;72.01
64211;BME280;50528;48.514;14.394;2023-07-22T01:25:46;93765.94;;;16.07;71.98
64211;BME280;50528;48.514;14.394;2023-07-22T01:26:20;93763.45;;;16.05;71.89
64211;BME280;50528;48.514;14.394;2023-07-22T01:26:53;93764.52;;;16.04;71.91
64211;BME280;50528;48.514;14.394;2023-07-22T01:27:27;93767.33;;;16.05;71.90
64211;BME280;50528;48.514;14.394;2023-07-22T01:28:01;93762.83;;;16.06;72.12
64211;BME280;50528;48.514;14.394;2023-07-22T01:28:35;93763.08;;;16.07;72.15
64211;BME280;50528;48.514;14.394;2023-07-22T01:29:09;93763.78;;;16.09;72.08
64211;BME280;50528;48.514;14.394;2023-07-22T01:29:43;93765.56;;;16.11;72.06
64211;BME280;50528;48.514;14.394;2023-07-22T01:30:17;93761.85;;;16.11;72.10
64211;BME280;50528;48.514;14.394;2023-07-22T01:30:53;93759.83;;;16.12;72.05
64211;BME280;50528;48.514;14.394;2023-07-22T01:31:26;93762.52;;;16.14;72.09
64211;BME280;50528;48.514;14.394;2023-07-22T01:32:01;93761.22;;;16.15;72.02
64211;BME280;50528;48.514;14.394;2023-07-22T01:32:35;93762.80;;;16.16;71.90
64211;BME280;50528;48.514;14.394;2023-07-22T01:33:08;93764.44;;;16.18;71.81
64211;BME280;50528;48.514;14.394;2023-07-22T01:33:42;93761.77;;;16.18;71.90
64211;BME280;50528;48.514;14.394;2023-07-22T01:34:18;93762.58;;;16.18;71.73
64211;BME280;50528;48.514;14.394;2023-07-22T01:34:51;93760.27;;;16.15;71.72
64211;BME280;50528;48.514;14.394;2023-07-22T01:35:25;93760.56;;;16.18;71.78
64211;BME280;50528;48.514;14.394;2023-07-22T01:36:00;93764.11;;;16.18;71.62
64211;BME280;50528;48.514;14.394;2023-07-22T01:36:33;93763.96;;;16.17;71.49
64211;BME280;50528;48.514;14.394;2023-07-22T01:37:07;93765.84;;;16.15;71.47
64211;BME280;50528;48.514;14.394;2023-07-22T01:37:40;93766.30;;;16.12;71.57
64211;BME280;50528;48.514;14.394;2023-07-22T01:38:14;93766.42;;;16.11;71.52
64211;BME280;50528;48.514;14.394;2023-07-22T01:38:47;93768.29;;;16.14;71.34
64211;BME280;50528;48.514;14.394;2023-07-22T01:39:20;93767.95;;;16.21;70.71
64211;BME280;50528;48.514;14.394;2023-07-22T01:39:55;93767.15;;;16.16;70.65
64211;BME280;50528;48.514;14.394;2023-07-22T01:40:30;93764.45;;;16.12;70.77
64211;BME280;50528;48.514;14.394;2023-07-22T01:41:04;93767.07;;;16.09;70.77
64211;BME280;50528;48.514;14.394;2023-07-22T01:41:37;93769.61;;;16.04;70.86
64211;BME280;50528;48.514;14.394;2023-07-22T01:42:11;93768.13;;;16.02;70.99
64211;BME280;50528;48.514;14.394;2023-07-22T01:42:44;93767.62;;;16.03;70.97
64211;BME280;50528;48.514;14.394;2023-07-22T01:43:18;93768.12;;;16.01;70.73
64211;BME280;50528;48.514;14.394;2023-07-22T01:43:51;93772.27;;;15.99;70.91
64211;BME280;50528;48.514;14.394;2023-07-22T01:44:24;93769.52;;;15.97;71.03
64211;BME280;50528;48.514;14.394;2023-07-22T01:44:58;93767.05;;;15.96;70.96
64211;BME280;50528;48.514;14.394;2023-07-22T01:45:31;93770.26;;;15.99;70.95
64211;BME280;50528;48.514;14.394;2023-07-22T01:46:05;93767.89;;;16.02;70.84
64211;BME280;50528;48.514;14.394;2023-07-22T01:46:39;93773.35;;;16.02;70.84
64211;BME280;50528;48.514;14.394;2023-07-22T01:47:12;93769.13;;;16.11;70.22
64211;BME280;50528;48.514;14.394;2023-07-22T01:47:46;93772.38;;;15.98;70.54
64211;BME280;50528;48.514;14.394;2023-07-22T01:48:19;93776.08;;;16.01;70.57
64211;BME280;50528;48.514;14.394;2023-07-22T01:48:56;93776.11;;;15.92;70.74
64211;BME280;50528;48.514;14.394;2023-07-22T01:50:42;93774.13;;;15.77;71.00
64211;BME280;50528;48.514;14.394;2023-07-22T01:51:15;93777.90;;;15.72;71.17
64211;BME280;50528;48.514;14.394;2023-07-22T01:51:48;93780.45;;;15.71;71.22
64211;BME280;50528;48.514;14.394;2023-07-22T01:52:21;93780.34;;;15.72;71.38
64211;BME280;50528;48.514;14.394;2023-07-22T01:52:55;93775.70;;;15.73;71.23
64211;BME280;50528;48.514;14.394;2023-07-22T01:53:28;93777.02;;;15.75;71.38
64211;BME280;50528;48.514;14.394;2023-07-22T01:54:01;93779.51;;;15.76;71.34
64211;BME280;50528;48.514;14.394;2023-07-22T01:54:35;93777.75;;;15.76;71.42
64211;BME280;50528;48.514;14.394;2023-07-22T01:55:09;93780.19;;;15.77;71.35
64211;BME280;50528;48.514;14.394;2023-07-22T01:55:44;93777.36;;;15.78;71.36
64211;BME280;50528;48.514;14.394;2023-07-22T01:56:17;93778.98;;;15.79;71.23
64211;BME280;50528;48.514;14.394;2023-07-22T01:56:53;93779.60;;;15.81;71.26
64211;BME280;50528;48.514;14.394;2023-07-22T01:57:26;93779.08;;;15.82;71.27
64211;BME280;50528;48.514;14.394;2023-07-22T01:58:00;93784.91;;;15.85;71.19
64211;BME280;50528;48.514;14.394;2023-07-22T01:58:34;93780.98;;;15.85;71.09
64211;BME280;50528;48.514;14.394;2023-07-22T01:59:08;93781.25;;;15.86;71.09
64211;BME280;50528;48.514;14.394;2023-07-22T01:59:42;93785.16;;;15.86;71.00
64211;BME280;50528;48.514;14.394;2023-07-22T02:00:16;93782.10;;;15.86;70.88
64211;BME280;50528;48.514;14.394;2023-07-22T02:00:50;93786.59;;;15.87;70.98
64211;BME280;50528;48.514;14.394;2023-07-22T02:01:25;93787.33;;;15.88;70.90
64211;BME280;50528;48.514;14.394;2023-07-22T02:01:58;93787.43;;;15.88;70.78
64211;BME280;50528;48.514;14.394;2023-07-22T02:02:33;93785.48;;;15.89;70.66
64211;BME280;50528;48.514;14.394;2023-07-22T02:03:06;93790.66;;;15.89;70.64
64211;BME280;50528;48.514;14.394;2023-07-22T02:03:40;93786.75;;;15.87;70.57
64211;BME280;50528;48.514;14.394;2023-07-22T02:04:13;93788.61;;;15.87;70.59
64211;BME280;50528;48.514;14.394;2023-07-22T02:04:47;93787.56;;;15.85;70.45
64211;BME280;50528;48.514;14.394;2023-07-22T02:05:20;93792.84;;;15.84;70.35
64211;BME280;50528;48.514;14.394;2023-07-22T02:06:01;93791.92;;;15.84;70.41
64211;BME280;50528;48.514;14.394;2023-07-22T02:06:34;93794.34;;;15.83;70.34
64211;BME280;50528;48.514;14.394;2023-07-22T02:07:08;93794.55;;;15.82;70.39
64211;BME280;50528;48.514;14.394;2023-07-22T02:07:42;93793.61;;;15.80;70.39
64211;BME280;50528;48.514;14.394;2023-07-22T02:08:15;93795.30;;;15.81;70.29
64211;BME280;50528;48.514;14.394;2023-07-22T02:08:49;93794.71;;;15.80;70.41
64211;BME280;50528;48.514;14.394;2023-07-22T02:09:22;93792.52;;;15.78;70.34
64211;BME280;50528;48.514;14.394;2023-07-22T02:09:56;93796.41;;;15.80;70.43
64211;BME280;50528;48.514;14.394;2023-07-22T02:10:29;93792.01;;;15.81;70.37
64211;BME280;50528;48.514;14.394;2023-07-22T02:11:07;93791.70;;;15.81;70.17
64211;BME280;50528;48.514;14.394;2023-07-22T02:11:41;93788.21;;;15.79;70.13
64211;BME280;50528;48.514;14.394;2023-07-22T02:12:15;93790.64;;;15.79;70.20
64211;BME280;50528;48.514;14.394;2023-07-22T02:12:48;93787.49;;;15.77;70.09
64211;BME280;50528;48.514;14.394;2023-07-22T02:13:21;93789.83;;;15.77;70.04
64211;BME280;50528;48.514;14.394;2023-07-22T02:13:55;93793.23;;;15.76;70.06
64211;BME280;50528;48.514;14.394;2023-07-22T02:14:28;93793.55;;;15.75;70.05
64211;BME280;50528;48.514;14.394;2023-07-22T02:15:02;93788.91;;;15.72;70.07
64211;BME280;50528;48.514;14.394;2023-07-22T02:15:36;93791.45;;;15.73;69.96
64211;BME280;50528;48.514;14.394;2023-07-22T02:16:09;93795.58;;;15.72;70.01
64211;BME280;50528;48.514;14.394;2023-07-22T02:16:46;93792.33;;;15.72;70.04
64211;BME280;50528;48.514;14.394;2023-07-22T02:17:19;93793.34;;;15.71;70.01
64211;BME280;50528;48.514;14.394;2023-07-22T02:17:53;93793.83;;;15.74;70.01
64211;BME280;50528;48.514;14.394;2023-07-22T02:18:29;93792.23;;;15.75;69.65
64211;BME280;50528;48.514;14.394;2023-07-22T02:19:03;93790.35;;;15.66;69.88
64211;BME280;50528;48.514;14.394;2023-07-22T02:19:41;93791.11;;;15.59;69.98
64211;BME280;50528;48.514;14.394;2023-07-22T02:20:15;93793.08;;;15.63;70.01
64211;BME280;50528;48.514;14.394;2023-07-22T02:20:48;93793.63;;;15.55;70.08
64211;BME280;50528;48.514;14.394;2023-07-22T02:21:21;93793.86;;;15.50;70.31
64211;BME280;50528;48.514;14.394;2023-07-22T02:21:54;93799.98;;;15.46;70.46
64211;BME280;50528;48.514;14.394;2023-07-22T02:22:28;93796.40;;;15.43;70.43
64211;BME280;50528;48.514;14.394;2023-07-22T02:23:01;93797.01;;;15.46;70.42
64211;BME280;50528;48.514;14.394;2023-07-22T02:23:35;93800.63;;;15.42;70.33
64211;BME280;50528;48.514;14.394;2023-07-22T02:24:09;93799.34;;;15.39;70.62
64211;BME280;50528;48.514;14.394;2023-07-22T02:24:43;93802.20;;;15.38;70.53
64211;BME280;50528;48.514;14.394;2023-07-22T02:25:16;93803.67;;;15.33;70.60
64211;BME280;50528;48.514;14.394;2023-07-22T02:25:53;93802.18;;;15.32;70.83
64211;BME280;50528;48.514;14.394;2023-07-22T02:26:26;93800.48;;;15.29;70.79
64211;BME280;50528;48.514;14.394;2023-07-22T02:27:00;93805.84;;;15.28;70.85
64211;BME280;50528;48.514;14.394;2023-07-22T02:27:34;93801.77;;;15.26;70.92
64211;BME280;50528;48.514;14.394;2023-07-22T02:28:08;93804.02;;;15.22;70.93
64211;BME280;50528;48.514;14.394;2023-07-22T02:28:41;93804.50;;;15.22;71.04
64211;BME280;50528;48.514;14.394;2023-07-22T02:29:15;93801.66;;;15.21;71.05
64211;BME280;50528;48.514;14.394;2023-07-22T02:29:48;93801.67;;;15.16;71.11
64211;BME280;50528;48.514;14.394;2023-07-22T02:30:21;93802.42;;;15.23;71.04
64211;BME280;50528;48.514;14.394;2023-07-22T02:30:55;93803.48;;;15.18;71.12
64211;BME280;50528;48.514;14.394;2023-07-22T02:31:29;93803.86;;;15.15;71.09
64211;BME280;50528;48.514;14.394;2023-07-22T02:32:02;93803.84;;;15.09;71.11
64211;BME280;50528;48.514;14.394;2023-07-22T02:32:38;93802.17;;;15.07;71.35
64211;BME280;50528;48.514;14.394;2023-07-22T02:33:13;93806.88;;;15.08;71.19
64211;BME280;50528;48.514;14.394;2023-07-22T02:33:46;93804.73;;;15.04;71.44
64211;BME280;50528;48.514;14.394;2023-07-22T02:34:20;93804.55;;;14.99;71.35
64211;BME280;50528;48.514;14.394;2023-07-22T02:34:53;93806.92;;;15.01;71.53
64211;BME280;50528;48.514;14.394;2023-07-22T02:35:26;93808.46;;;15.00;71.38
64211;BME280;50528;48.514;14.394;2023-07-22T02:36:00;93803.87;;;14.96;71.56
64211;BME280;50528;48.514;14.394;2023-07-22T02:36:33;93804.20;;;14.96;71.59
64211;BME280;50528;48.514;14.394;2023-07-22T02:37:06;93805.20;;;14.96;71.77
64211;BME280;50528;48.514;14.394;2023-07-22T02:37:40;93803.89;;;14.94;71.50
64211;BME280;50528;48.514;14.394;2023-07-22T02:38:13;93804.45;;;14.88;71.75
64211;BME280;50528;48.514;14.394;2023-07-22T02:38:50;93802.16;;;14.90;71.67
64211;BME280;50528;48.514;14.394;2023-07-22T02:39:23;93803.67;;;14.96;71.80
64211;BME280;50528;48.514;14.394;2023-07-22T02:39:56;93805.08;;;14.99;71.46
64211;BME280;50528;48.514;14.394;2023-07-22T02:40:30;93804.15;;;14.94;71.54
64211;BME280;50528;48.514;14.394;2023-07-22T02:41:07;93805.20;;;14.87;71.55
64211;BME280;50528;48.514;14.394;2023-07-22T02:41:41;93805.61;;;14.89;71.56
64211;BME280;50528;48.514;14.394;2023-07-22T02:42:14;93807.11;;;14.86;71.57
64211;BME280;50528;48.514;14.394;2023-07-22T02:42:47;93805.08;;;14.82;71.71
64211;BME280;50528;48.514;14.394;2023-07-22T02:43:21;93805.44;;;14.80;71.76
64211;BME280;50528;48.514;14.394;2023-07-22T02:43:54;93808.50;;;14.84;71.76
64211;BME280;50528;48.514;14.394;2023-07-22T02:44:27;93804.36;;;14.78;71.66
64211;BME280;50528;48.514;14.394;2023-07-22T02:45:01;93807.13;;;14.82;71.65
64211;BME280;50528;48.514;14.394;2023-07-22T02:45:36;93807.10;;;14.79;71.71
64211;BME280;50528;48.514;14.394;2023-07-22T02:46:10;93807.12;;;14.76;71.60
64211;BME280;50528;48.514;14.394;2023-07-22T02:46:43;93811.05;;;14.73;71.77
64211;BME280;50528;48.514;14.394;2023-07-22T02:47:17;93817.28;;;14.74;71.85
64211;BME280;50528;48.514;14.394;2023-07-22T02:47:51;93815.65;;;14.72;72.01
64211;BME280;50528;48.514;14.394;2023-07-22T02:48:24;93820.39;;;14.74;72.08
64211;BME280;50528;48.514;14.394;2023-07-22T02:48:58;93809.37;;;14.70;71.96
64211;BME280;50528;48.514;14.394;2023-07-22T02:49:32;93822.65;;;14.71;72.07
64211;BME280;50528;48.514;14.394;2023-07-22T02:50:06;93822.33;;;14.71;72.17
64211;BME280;50528;48.514;14.394;2023-07-22T02:50:39;93824.39;;;14.72;72.02
64211;BME280;50528;48.514;14.394;2023-07-22T02:51:14;93820.70;;;14.72;72.19
64211;BME280;50528;48.514;14.394;2023-07-22T02:51:47;93819.74;;;14.70;72.30
64211;BME280;50528;48.514;14.394;2023-07-22T02:52:20;93820.96;;;14.68;72.25
64211;BME280;50528;48.514;14.394;2023-07-22T02:52:54;93818.89;;;14.68;72.12
64211;BME280;50528;48.514;14.394;2023-07-22T02:53:27;93816.95;;;14.67;72.27
64211;BME280;50528;48.514;14.394;2023-07-22T02:54:00;93812.11;;;14.72;72.37
64211;BME280;50528;48.514;14.394;2023-07-22T02:54:40;93809.91;;;14.78;72.20
64211;BME280;50528;48.514;14.394;2023-07-22T02:55:16;93808.04;;;14.72;72.08
64211;BME280;50528;48.514;14.394;2023-07-22T02:55:52;93808.39;;;14.66;72.26
64211;BME280;50528;48.514;14.394;2023-07-22T02:56:26;93809.61;;;14.64;72.27
64211;BME280;50528;48.514;14.394;2023-07-22T02:57:00;93804.05;;;14.66;72.44
64211;BME280;50528;48.514;14.394;2023-07-22T02:57:34;93802.44;;;14.70;72.38
64211;BME280;50528;48.514;14.394;2023-07-22T02:58:07;93802.44;;;14.70;72.27
64211;BME280;50528;48.514;14.394;2023-07-22T02:58:40;93801.86;;;14.69;72.31
64211;BME280;50528;48.514;14.394;2023-07-22T02:59:15;93804.55;;;14.70;72.28